createdAt,value
2023-05-24T00:00:56.041Z,102121.13
2023-05-24T00:03:26.409Z,102112.44
2023-05-24T00:05:57.093Z,102123.09
2023-05-24T00:08:27.015Z,102117.19
2023-05-24T00:10:56.901Z,102123.22
2023-05-24T00:13:29.601Z,102108.31
2023-05-24T00:15:59.612Z,102120.25
2023-05-24T00:18:31.511Z,102113.03
2023-05-24T00:21:01.493Z,102115.25
2023-05-24T00:23:31.383Z,102108.19
2023-05-24T00:26:01.620Z,102098.47
2023-05-24T00:28:34.262Z,102093.03
2023-05-24T00:31:04.975Z,102096.31
2023-05-24T00:33:35.139Z,102096.91
2023-05-24T00:36:05.064Z,102093.69
2023-05-24T00:38:34.928Z,102098.56
2023-05-24T00:41:05.176Z,102092.03
2023-05-24T00:43:37.679Z,102098.31
2023-05-24T00:46:19.200Z,102096.97
2023-05-24T00:48:49.688Z,102098.56
2023-05-24T00:51:19.898Z,102092.88
2023-05-24T00:53:51.342Z,102087.13
2023-05-24T00:56:21.377Z,102083.88
2023-05-24T00:58:55.007Z,102086.59
2023-05-24T01:01:26.753Z,102083.88
2023-05-24T01:03:57.614Z,102079.53
2023-05-24T01:06:28.736Z,102077.41
2023-05-24T01:09:12.222Z,102082.38
2023-05-24T01:11:54.039Z,102088.34
2023-05-24T01:14:32.319Z,102086.81
2023-05-24T01:17:09.633Z,102084.66
2023-05-24T01:20:02.491Z,102088.00
2023-05-24T01:23:01.310Z,102086.41
2023-05-24T01:25:48.607Z,102077.47
2023-05-24T01:28:22.056Z,102075.63
2023-05-24T01:30:52.479Z,102076.19
2023-05-24T01:33:22.531Z,102064.25
2023-05-24T01:35:52.702Z,102063.75
2023-05-24T01:38:22.563Z,102069.78
2023-05-24T01:40:55.916Z,102060.56
2023-05-24T01:43:36.970Z,102075.03
2023-05-24T01:46:14.861Z,102069.34
2023-05-24T01:48:57.602Z,102066.66
2023-05-24T01:51:30.704Z,102061.81
2023-05-24T01:54:02.327Z,102064.81
2023-05-24T01:56:33.440Z,102059.13
2023-05-24T01:59:06.465Z,102055.38
2023-05-24T02:01:37.817Z,102054.31
2023-05-24T02:04:08.121Z,102052.19
2023-05-24T02:06:38.398Z,102054.34
2023-05-24T02:09:08.285Z,102052.22
2023-05-24T02:11:38.395Z,102053.88
2023-05-24T02:14:11.431Z,102052.25
2023-05-24T02:16:43.017Z,102057.44
2023-05-24T02:19:13.045Z,102062.63
2023-05-24T02:21:43.062Z,102056.69
2023-05-24T02:24:13.282Z,102052.88
2023-05-24T02:26:43.348Z,102052.66
2023-05-24T02:29:15.812Z,102055.66
2023-05-24T02:31:45.631Z,102055.41
2023-05-24T02:34:15.528Z,102060.31
2023-05-24T02:36:45.994Z,102076.31
2023-05-24T02:39:16.071Z,102067.06
2023-05-24T02:41:45.965Z,102067.59
2023-05-24T02:44:18.589Z,102069.25
2023-05-24T02:46:48.663Z,102077.38
2023-05-24T02:49:18.614Z,102081.16
2023-05-24T02:51:48.772Z,102078.44
2023-05-24T02:54:18.992Z,102073.31
2023-05-24T02:56:48.815Z,102074.69
2023-05-24T02:59:21.333Z,102068.19
2023-05-24T03:01:51.270Z,102069.06
2023-05-24T03:04:21.202Z,102075.84
2023-05-24T03:06:51.135Z,102066.09
2023-05-24T03:09:21.094Z,102067.50
2023-05-24T03:11:52.990Z,102065.34
2023-05-24T03:14:25.512Z,102064.28
2023-05-24T03:16:55.344Z,102059.41
2023-05-24T03:19:25.810Z,102060.78
2023-05-24T03:21:55.683Z,102055.91
2023-05-24T03:24:26.298Z,102058.91
2023-05-24T03:26:56.160Z,102064.06
2023-05-24T03:29:28.684Z,102055.41
2023-05-24T03:31:58.615Z,102057.81
2023-05-24T03:34:28.539Z,102060.31
2023-05-24T03:36:58.483Z,102057.06
2023-05-24T03:39:28.322Z,102063.03
2023-05-24T03:41:58.387Z,102059.78
2023-05-24T03:44:30.917Z,102060.88
2023-05-24T03:47:00.822Z,102053.28
2023-05-24T03:49:30.726Z,102060.91
2023-05-24T03:52:00.604Z,102055.75
2023-05-24T03:54:30.593Z,102057.94
2023-05-24T03:57:00.715Z,102059.84
2023-05-24T03:59:33.557Z,102066.34
2023-05-24T04:02:03.536Z,102071.22
2023-05-24T04:04:33.536Z,102064.19
2023-05-24T04:07:03.527Z,102063.38
2023-05-24T04:09:33.500Z,102063.66
2023-05-24T04:12:03.711Z,102067.19
2023-05-24T04:14:36.246Z,102066.38
2023-05-24T04:17:08.084Z,102071.00
2023-05-24T04:19:37.976Z,102067.47
2023-05-24T04:22:08.279Z,102071.00
2023-05-24T04:24:38.439Z,102069.63
2023-05-24T04:27:10.120Z,102076.13
2023-05-24T04:29:43.120Z,102076.34
2023-05-24T04:32:15.264Z,102075.25
2023-05-24T04:34:46.219Z,102078.75
2023-05-24T04:37:17.542Z,102082.81
2023-05-24T04:39:47.654Z,102082.25
2023-05-24T04:42:18.401Z,102083.88
2023-05-24T04:44:50.943Z,102090.16
2023-05-24T04:47:20.958Z,102091.50
2023-05-24T04:49:51.212Z,102084.16
2023-05-24T04:52:21.362Z,102085.25
2023-05-24T04:54:52.036Z,102092.81
2023-05-24T04:57:21.919Z,102093.91
2023-05-24T04:59:54.655Z,102091.16
2023-05-24T05:02:27.492Z,102101.97
2023-05-24T05:04:57.391Z,102108.50
2023-05-24T05:07:27.302Z,102102.25
2023-05-24T05:09:57.339Z,102105.25
2023-05-24T05:12:27.195Z,102110.19
2023-05-24T05:14:59.724Z,102109.59
2023-05-24T05:17:29.568Z,102100.91
2023-05-24T05:19:59.713Z,102105.19
2023-05-24T05:22:31.209Z,102101.94
2023-05-24T05:25:01.264Z,102091.59
2023-05-24T05:27:32.560Z,102102.97
2023-05-24T05:30:05.094Z,102097.44
2023-05-24T05:32:35.252Z,102101.22
2023-05-24T05:35:05.281Z,102101.72
2023-05-24T05:37:35.240Z,102098.94
2023-05-24T05:40:06.198Z,102101.06
2023-05-24T05:42:36.107Z,102092.25
2023-05-24T05:45:10.343Z,102100.88
2023-05-24T05:47:40.850Z,102098.13
2023-05-24T05:50:11.484Z,102093.97
2023-05-24T05:52:41.391Z,102096.88
2023-05-24T05:55:12.635Z,102094.63
2023-05-24T05:57:43.312Z,102089.41
2023-05-24T06:00:17.104Z,102086.56
2023-05-24T06:02:47.178Z,102090.56
2023-05-24T06:05:17.145Z,102093.00
2023-05-24T06:07:47.595Z,102097.91
2023-05-24T06:10:17.840Z,102111.16
2023-05-24T06:12:47.792Z,102107.28
2023-05-24T06:15:22.853Z,102125.22
2023-05-24T06:17:53.099Z,102122.19
2023-05-24T06:20:23.645Z,102111.78
2023-05-24T06:22:54.006Z,102113.03
2023-05-24T06:25:24.722Z,102114.66
2023-05-24T06:27:54.654Z,102115.13
2023-05-24T06:30:27.277Z,102110.06
2023-05-24T06:32:57.790Z,102118.47
2023-05-24T06:35:27.852Z,102106.81
2023-05-24T06:37:58.353Z,102103.22
2023-05-24T06:40:28.304Z,102105.34
2023-05-24T06:42:58.951Z,102110.59
2023-05-24T06:45:31.659Z,102112.97
2023-05-24T06:48:01.847Z,102109.94
2023-05-24T06:50:32.227Z,102114.25
2023-05-24T06:53:03.114Z,102111.44
2023-05-24T06:55:33.207Z,102114.69
2023-05-24T06:58:03.378Z,102115.09
2023-05-24T07:00:35.905Z,102109.53
2023-05-24T07:03:06.410Z,102116.50
2023-05-24T07:05:36.930Z,102107.22
2023-05-24T07:08:13.464Z,102110.75
2023-05-24T07:10:45.496Z,102115.63
2023-05-24T07:13:15.556Z,102119.66
2023-05-24T07:15:49.953Z,102121.06
2023-05-24T07:18:20.130Z,102120.84
2023-05-24T07:20:50.802Z,102132.97
2023-05-24T07:23:20.893Z,102120.25
2023-05-24T07:25:50.901Z,102117.59
2023-05-24T07:28:21.296Z,102118.03
2023-05-24T07:30:53.882Z,102118.94
2023-05-24T07:33:24.031Z,102119.88
2023-05-24T07:35:53.995Z,102128.56
2023-05-24T07:38:24.361Z,102121.28
2023-05-24T07:40:54.220Z,102122.69
2023-05-24T07:43:27.348Z,102122.38
2023-05-24T07:45:59.892Z,102104.56
2023-05-24T07:48:29.789Z,102101.50
2023-05-24T07:50:59.770Z,102098.91
2023-05-24T07:53:30.053Z,102104.59
2023-05-24T07:55:59.999Z,102099.88
2023-05-24T07:58:30.040Z,102106.09
2023-05-24T08:01:02.645Z,102111.00
2023-05-24T08:03:32.701Z,102108.44
2023-05-24T08:06:03.092Z,102115.53
2023-05-24T08:08:33.731Z,102115.19
2023-05-24T08:11:03.781Z,102121.25
2023-05-24T08:13:33.683Z,102116.03
2023-05-24T08:16:09.383Z,102116.41
2023-05-24T08:18:39.422Z,102117.63
2023-05-24T08:21:09.491Z,102122.16
2023-05-24T08:23:39.393Z,102111.25
2023-05-24T08:26:09.486Z,102122.47
2023-05-24T08:28:39.529Z,102117.81
2023-05-24T08:31:12.398Z,102116.38
2023-05-24T08:33:43.464Z,102112.38
2023-05-24T08:36:13.418Z,102109.72
2023-05-24T08:38:43.337Z,102113.47
2023-05-24T08:41:14.364Z,102109.66
2023-05-24T08:43:45.383Z,102103.69
2023-05-24T08:46:21.593Z,102100.94
2023-05-24T08:48:51.954Z,102090.94
2023-05-24T08:51:22.868Z,102090.56
2023-05-24T08:53:56.724Z,102090.13
2023-05-24T08:56:29.101Z,102079.66
2023-05-24T08:58:59.196Z,102072.72
2023-05-24T09:01:35.432Z,102079.13
2023-05-24T09:04:09.223Z,102080.63
2023-05-24T09:06:39.819Z,102068.84
2023-05-24T09:09:13.025Z,102074.75
2023-05-24T09:11:45.878Z,102072.22
2023-05-24T09:14:17.078Z,102078.34
2023-05-24T09:16:49.839Z,102070.19
2023-05-24T09:19:20.130Z,102079.03
2023-05-24T09:21:53.511Z,102075.69
2023-05-24T09:24:23.466Z,102074.06
2023-05-24T09:26:54.224Z,102082.00
2023-05-24T09:29:26.500Z,102084.97
2023-05-24T09:32:04.829Z,102083.19
2023-05-24T09:34:42.248Z,102084.28
2023-05-24T09:37:17.229Z,102069.00
2023-05-24T09:39:48.284Z,102080.66
2023-05-24T09:42:21.677Z,102080.88
2023-05-24T09:44:52.640Z,102083.72
2023-05-24T09:47:25.268Z,102070.75
2023-05-24T09:49:55.578Z,102064.97
2023-05-24T09:52:25.741Z,102058.88
2023-05-24T09:54:55.781Z,102059.97
2023-05-24T09:57:27.216Z,102058.47
2023-05-24T09:59:57.115Z,102048.66
2023-05-24T10:02:38.210Z,102048.47
2023-05-24T10:05:13.596Z,102045.00
2023-05-24T10:07:44.278Z,102054.56
2023-05-24T10:10:14.987Z,102063.44
2023-05-24T10:12:47.111Z,102059.97
2023-05-24T10:15:19.827Z,102065.25
2023-05-24T10:17:52.495Z,102069.47
2023-05-24T10:20:23.365Z,102069.06
2023-05-24T10:22:56.019Z,102067.25
2023-05-24T10:25:27.940Z,102068.22
2023-05-24T10:28:01.728Z,102063.88
2023-05-24T10:30:37.883Z,102060.72
2023-05-24T10:33:11.702Z,102059.56
2023-05-24T10:35:43.379Z,102052.91
2023-05-24T10:38:13.769Z,102062.31
2023-05-24T10:40:45.359Z,102057.03
2023-05-24T10:43:19.558Z,102053.38
2023-05-24T10:45:53.370Z,102055.38
2023-05-24T10:48:39.825Z,102062.56
2023-05-24T10:51:38.915Z,102059.59
2023-05-24T10:54:16.633Z,102055.03
2023-05-24T10:56:51.820Z,102059.53
2023-05-24T10:59:38.023Z,102054.97
2023-05-24T11:02:14.233Z,102062.66
2023-05-24T11:04:50.644Z,102059.78
2023-05-24T11:07:22.840Z,102062.75
2023-05-24T11:09:57.494Z,102052.91
2023-05-24T11:12:38.841Z,102063.19
2023-05-24T11:15:12.699Z,102064.91
2023-05-24T11:18:20.495Z,102065.06
2023-05-24T11:20:53.528Z,102065.06
2023-05-24T11:23:23.568Z,102070.69
2023-05-24T11:25:54.149Z,102067.00
2023-05-24T11:28:24.585Z,102066.22
2023-05-24T11:30:54.569Z,102055.72
2023-05-24T11:33:25.869Z,102064.16
2023-05-24T11:35:58.774Z,102066.66
2023-05-24T11:38:31.669Z,102059.28
2023-05-24T11:41:04.544Z,102058.63
2023-05-24T11:43:34.608Z,102059.09
2023-05-24T11:46:04.877Z,102066.53
2023-05-24T11:48:35.230Z,102060.81
2023-05-24T11:51:08.243Z,102058.41
2023-05-24T11:53:38.213Z,102052.50
2023-05-24T11:56:10.042Z,102049.47
2023-05-24T11:58:47.849Z,102054.63
2023-05-24T12:01:28.601Z,102044.53
2023-05-24T12:03:58.752Z,102054.41
2023-05-24T12:06:38.322Z,102044.78
2023-05-24T12:09:09.423Z,102048.97
2023-05-24T12:11:43.032Z,102051.00
2023-05-24T12:14:17.303Z,102053.78
2023-05-24T12:16:48.541Z,102051.72
2023-05-24T12:19:32.448Z,102050.09
2023-05-24T12:22:09.408Z,102048.09
2023-05-24T12:24:41.547Z,102049.69
2023-05-24T12:27:11.577Z,102046.91
2023-05-24T12:29:43.623Z,102044.84
2023-05-24T12:32:15.634Z,102043.69
2023-05-24T12:34:47.030Z,102052.38
2023-05-24T12:37:22.815Z,102042.84
2023-05-24T12:39:54.525Z,102042.94
2023-05-24T12:42:24.914Z,102034.81
2023-05-24T12:44:55.386Z,102032.34
2023-05-24T12:47:25.512Z,102027.97
2023-05-24T12:49:55.458Z,102035.34
2023-05-24T12:52:28.261Z,102022.97
2023-05-24T12:54:58.178Z,102038.16
2023-05-24T12:57:28.135Z,102027.56
2023-05-24T12:59:58.111Z,102026.53
2023-05-24T13:02:28.180Z,102034.88
2023-05-24T13:04:58.204Z,102035.97
2023-05-24T13:07:32.138Z,102035.19
2023-05-24T13:10:02.149Z,102041.34
2023-05-24T13:12:31.981Z,102020.22
2023-05-24T13:15:02.243Z,102034.66
2023-05-24T13:17:32.594Z,102028.69
2023-05-24T13:20:08.456Z,102031.66
2023-05-24T13:22:44.253Z,102025.59
2023-05-24T13:25:14.313Z,102035.81
2023-05-24T13:27:44.578Z,102030.28
2023-05-24T13:30:17.463Z,102030.50
2023-05-24T13:32:47.555Z,102027.19
2023-05-24T13:35:18.363Z,102020.31
2023-05-24T13:37:51.336Z,102019.50
2023-05-24T13:40:21.682Z,102019.06
2023-05-24T13:42:51.695Z,102019.34
2023-05-24T13:45:23.153Z,102024.66
2023-05-24T13:47:53.760Z,102013.75
2023-05-24T13:50:24.070Z,102013.03
2023-05-24T13:52:57.636Z,102019.06
2023-05-24T13:55:28.961Z,102013.16
2023-05-24T13:57:59.238Z,102012.56
2023-05-24T14:00:29.226Z,102020.34
2023-05-24T14:02:59.590Z,102013.03
2023-05-24T14:05:31.120Z,102011.22
2023-05-24T14:08:07.242Z,102012.75
2023-05-24T14:10:37.923Z,102014.72
2023-05-24T14:15:41.268Z,102017.69
2023-05-24T14:18:11.560Z,102021.41
2023-05-24T14:20:41.994Z,102025.53
2023-05-24T14:23:14.803Z,102022.53
2023-05-24T14:25:47.091Z,102024.22
2023-05-24T14:28:17.306Z,102023.34
2023-05-24T14:30:47.420Z,102020.91
2023-05-24T14:33:17.707Z,102017.34
2023-05-24T14:35:48.389Z,102021.69
2023-05-24T14:38:21.082Z,102018.19
2023-05-24T14:40:51.450Z,102022.69
2023-05-24T14:43:21.677Z,102026.69
2023-05-24T14:45:51.715Z,102025.31
2023-05-24T14:48:21.882Z,102022.78
2023-05-24T14:50:51.891Z,102019.00
2023-05-24T14:53:24.465Z,102027.63
2023-05-24T14:55:54.637Z,102022.78
2023-05-24T14:58:24.934Z,102022.69
2023-05-24T15:00:55.648Z,102028.78
2023-05-24T15:03:25.937Z,102029.69
2023-05-24T15:05:56.061Z,102023.72
2023-05-24T15:08:28.641Z,102020.25
2023-05-24T15:10:59.205Z,102020.03
2023-05-24T15:13:29.230Z,102016.38
2023-05-24T15:16:00.772Z,102026.97
2023-05-24T15:18:33.138Z,102017.88
2023-05-24T15:21:03.334Z,102010.91
2023-05-24T15:23:36.645Z,102019.16
2023-05-24T15:26:06.691Z,102016.41
2023-05-24T15:28:36.787Z,102019.50
2023-05-24T15:31:07.332Z,102014.44
2023-05-24T15:33:38.855Z,102015.72
2023-05-24T15:36:10.406Z,102014.78
2023-05-24T15:38:46.580Z,102021.69
2023-05-24T15:41:16.529Z,102020.25
2023-05-24T15:43:46.766Z,102015.69
2023-05-24T15:46:16.812Z,102010.25
2023-05-24T15:48:46.798Z,102014.53
2023-05-24T15:53:52.563Z,102011.41
2023-05-24T15:56:23.572Z,102012.13
2023-05-24T15:58:53.619Z,102006.53
2023-05-24T16:01:23.570Z,102005.47
2023-05-24T16:03:53.610Z,102003.06
2023-05-24T16:06:23.559Z,101996.19
2023-05-24T16:08:56.038Z,101999.28
2023-05-24T16:11:26.216Z,101999.66
2023-05-24T16:13:57.199Z,102006.06
2023-05-24T16:16:28.858Z,102004.94
2023-05-24T16:18:58.880Z,102000.31
2023-05-24T16:21:29.085Z,101997.34
2023-05-24T16:24:03.545Z,101998.50
2023-05-24T16:26:33.648Z,101991.84
2023-05-24T16:29:03.945Z,101995.06
2023-05-24T16:31:33.933Z,101989.56
2023-05-24T16:34:03.933Z,101989.00
2023-05-24T16:36:34.352Z,101988.19
2023-05-24T16:39:07.626Z,101987.72
2023-05-24T16:41:37.935Z,101987.47
2023-05-24T16:44:07.893Z,101988.41
2023-05-24T16:46:37.914Z,101993.19
2023-05-24T16:49:07.879Z,101991.59
2023-05-24T16:51:37.809Z,101987.78
2023-05-24T16:54:10.713Z,101985.38
2023-05-24T16:56:40.886Z,101987.34
2023-05-24T16:59:10.800Z,101994.13
2023-05-24T17:01:40.798Z,101988.94
2023-05-24T17:04:11.318Z,101995.72
2023-05-24T17:06:42.797Z,101989.50
2023-05-24T17:09:16.192Z,101987.78
2023-05-24T17:11:46.159Z,101985.88
2023-05-24T17:14:16.106Z,101987.72
2023-05-24T17:16:46.102Z,101987.34
2023-05-24T17:19:16.250Z,101990.47
2023-05-24T17:21:46.681Z,101984.28
2023-05-24T17:24:19.571Z,101989.78
2023-05-24T17:26:49.474Z,101991.97
2023-05-24T17:29:19.358Z,101980.13
2023-05-24T17:31:49.607Z,101990.69
2023-05-24T17:34:19.687Z,101990.44
2023-05-24T17:36:49.654Z,101988.75
2023-05-24T17:39:26.757Z,101983.25
2023-05-24T17:41:56.723Z,101993.53
2023-05-24T17:44:26.797Z,101990.19
2023-05-24T17:46:57.676Z,101990.88
2023-05-24T17:49:27.744Z,101992.50
2023-05-24T17:52:00.324Z,101990.66
2023-05-24T17:54:33.264Z,101990.59
2023-05-24T17:57:03.162Z,101985.31
2023-05-24T17:59:33.094Z,101982.91
2023-05-24T18:02:03.335Z,101982.34
2023-05-24T18:04:33.443Z,101989.47
2023-05-24T18:07:03.437Z,101990.34
2023-05-24T18:09:36.201Z,101986.81
2023-05-24T18:12:07.130Z,101993.78
2023-05-24T18:14:37.232Z,101997.00
2023-05-24T18:17:09.306Z,101994.84
2023-05-24T18:19:39.293Z,101997.38
2023-05-24T18:22:09.525Z,101990.56
2023-05-24T18:24:42.093Z,101993.91
2023-05-24T18:27:12.076Z,101993.91
2023-05-24T18:29:42.208Z,101993.91
2023-05-24T18:32:12.218Z,102007.06
2023-05-24T18:34:42.551Z,102003.38
2023-05-24T18:37:12.456Z,101999.31
2023-05-24T18:39:45.106Z,101994.97
2023-05-24T18:42:15.568Z,101998.88
2023-05-24T18:44:45.603Z,101995.66
2023-05-24T18:47:15.469Z,102010.53
2023-05-24T18:49:45.636Z,102012.00
2023-05-24T18:52:16.208Z,102017.06
2023-05-24T18:54:49.171Z,102010.84
2023-05-24T18:57:19.349Z,102010.84
2023-05-24T18:59:49.403Z,102015.66
2023-05-24T19:02:20.189Z,102018.19
2023-05-24T19:04:52.416Z,102019.78
2023-05-24T19:07:22.576Z,102022.28
2023-05-24T19:09:55.469Z,102031.19
2023-05-24T19:12:25.752Z,102019.13
2023-05-24T19:14:55.935Z,102034.69
2023-05-24T19:17:26.429Z,102038.59
2023-05-24T19:19:56.689Z,102033.88
2023-05-24T19:22:29.379Z,102034.69
2023-05-24T19:25:02.058Z,102038.44
2023-05-24T19:27:32.064Z,102049.81
2023-05-24T19:30:02.108Z,102050.47
2023-05-24T19:32:32.413Z,102049.56
2023-05-24T19:35:02.518Z,102043.78
2023-05-24T19:37:32.472Z,102052.34
2023-05-24T19:40:05.540Z,102047.38
2023-05-24T19:42:38.932Z,102053.53
2023-05-24T19:45:10.519Z,102058.91
2023-05-24T19:47:41.029Z,102055.19
2023-05-24T19:50:11.985Z,102061.00
2023-05-24T19:52:42.312Z,102057.31
2023-05-24T19:55:15.629Z,102070.09
2023-05-24T19:57:45.829Z,102068.16
2023-05-24T20:00:16.541Z,102074.97
2023-05-24T20:02:46.719Z,102075.81
2023-05-24T20:05:17.580Z,102078.25
2023-05-24T20:07:47.627Z,102075.69
2023-05-24T20:10:20.583Z,102076.31
2023-05-24T20:12:50.984Z,102079.75
2023-05-24T20:15:21.601Z,102081.38
2023-05-24T20:17:51.701Z,102088.97
2023-05-24T20:20:21.736Z,102091.88
2023-05-24T20:22:51.784Z,102095.13
2023-05-24T20:25:24.932Z,102089.00
2023-05-24T20:27:54.976Z,102090.13
2023-05-24T20:30:24.970Z,102092.56
2023-05-24T20:32:55.278Z,102095.47
2023-05-24T20:35:25.444Z,102104.03
2023-05-24T20:37:55.450Z,102103.38
2023-05-24T20:40:28.149Z,102112.53
2023-05-24T20:42:58.236Z,102111.06
2023-05-24T20:45:28.265Z,102113.34
2023-05-24T20:47:58.897Z,102112.84
2023-05-24T20:50:29.004Z,102112.34
2023-05-24T20:52:59.001Z,102120.91
2023-05-24T20:55:31.904Z,102124.75
2023-05-24T20:58:01.855Z,102121.38
2023-05-24T21:00:31.794Z,102122.81
2023-05-24T21:03:01.929Z,102131.00
2023-05-24T21:05:32.096Z,102124.56
2023-05-24T21:08:02.038Z,102133.25
2023-05-24T21:10:34.796Z,102132.09
2023-05-24T21:13:04.728Z,102134.84
2023-05-24T21:15:37.466Z,102134.19
2023-05-24T21:18:07.685Z,102134.72
2023-05-24T21:20:37.698Z,102134.38
2023-05-24T21:23:08.090Z,102134.06
2023-05-24T21:25:40.819Z,102140.34
2023-05-24T21:28:13.032Z,102134.88
2023-05-24T21:30:43.179Z,102137.13
2023-05-24T21:33:13.442Z,102135.50
2023-05-24T21:35:43.848Z,102139.19
2023-05-24T21:38:14.035Z,102136.31
2023-05-24T21:40:46.692Z,102138.84
2023-05-24T21:43:16.990Z,102145.47
2023-05-24T21:45:47.102Z,102142.69
2023-05-24T21:48:17.125Z,102150.72
2023-05-24T21:50:47.147Z,102160.88
2023-05-24T21:53:17.204Z,102156.84
2023-05-24T21:55:51.864Z,102155.22
2023-05-24T21:58:21.807Z,102160.50
2023-05-24T22:00:51.869Z,102168.56
2023-05-24T22:03:22.506Z,102165.16
2023-05-24T22:05:52.882Z,102161.25
2023-05-24T22:08:22.830Z,102163.63
2023-05-24T22:10:55.778Z,102167.59
2023-05-24T22:13:25.727Z,102169.94
2023-05-24T22:15:55.821Z,102169.78
2023-05-24T22:18:28.805Z,102176.19
2023-05-24T22:21:00.431Z,102171.94
2023-05-24T22:23:30.598Z,102180.28
2023-05-24T22:26:03.564Z,102179.09
2023-05-24T22:28:51.071Z,102178.91
2023-05-24T22:31:21.842Z,102184.00
2023-05-24T22:33:52.416Z,102190.09
2023-05-24T22:36:22.778Z,102182.03
2023-05-24T22:38:53.154Z,102182.13
2023-05-24T22:41:27.763Z,102179.03
2023-05-24T22:44:01.582Z,102175.28
2023-05-24T22:46:32.056Z,102180.88
2023-05-24T22:49:03.408Z,102182.28
2023-05-24T22:51:33.418Z,102178.88
2023-05-24T22:54:03.731Z,102188.78
2023-05-24T22:56:36.351Z,102184.22
2023-05-24T22:59:06.385Z,102189.50
2023-05-24T23:01:36.869Z,102196.69
2023-05-24T23:06:41.904Z,102191.47
2023-05-24T23:09:12.808Z,102195.91
2023-05-24T23:11:46.329Z,102200.34
2023-05-24T23:14:17.205Z,102191.13
2023-05-24T23:16:47.264Z,102190.41
2023-05-24T23:19:19.036Z,102201.16
2023-05-24T23:21:52.496Z,102193.06
2023-05-24T23:24:22.585Z,102202.13
2023-05-24T23:26:56.231Z,102203.88
2023-05-24T23:29:26.385Z,102199.31
2023-05-24T23:31:56.302Z,102201.53
2023-05-24T23:34:26.400Z,102195.88
2023-05-24T23:36:57.865Z,102195.25
2023-05-24T23:39:27.805Z,102203.53
2023-05-24T23:42:00.540Z,102202.22
2023-05-24T23:44:30.724Z,102199.28
2023-05-24T23:47:01.327Z,102199.88
2023-05-24T23:49:32.117Z,102197.78
2023-05-24T23:52:02.190Z,102206.22
2023-05-24T23:54:32.193Z,102207.94
2023-05-24T23:57:07.707Z,102203.88
2023-05-24T23:59:37.964Z,102205.59
